ADDS METAR Data INFO
IDs: Format: Raw Decoded Include TAF

Data at: 0349 UTC 17 Jul 2018

METAR for:KFGX (Flemingsburg Arpt, KY, US)
Text:KFGX 170335Z AUTO 26006KT 10SM SCT030 SCT041 BKN049 24/23 A2996 RMK AO2 T02390233
Temperature: 23.9°C ( 75°F)
Dewpoint: 23.3°C ( 74°F) [RH = 96%]
Pressure (altimeter):29.96 inches Hg (1014.6 mb)
Winds:from the W (260 degrees) at 7 MPH (6 knots; 3.1 m/s)
Visibility:10 or more sm (16+ km)
Ceiling:4900 feet AGL
Clouds: scattered clouds at 3000 feet AGL, scattered clouds at 4100 feet AGL, broken clouds at 4900 feet AGL
QC Flag:automated observation with no human augmentation